createdAt,value
2019-02-18T00:02:16.927Z,37.77
2019-02-18T00:04:45.183Z,34.70
2019-02-18T00:07:14.678Z,41.93
2019-02-18T00:09:43.187Z,38.53
2019-02-18T00:12:11.454Z,37.27
2019-02-18T00:14:39.724Z,36.83
2019-02-18T00:17:07.987Z,35.20
2019-02-18T00:19:36.275Z,33.65
2019-02-18T00:22:04.543Z,34.88
2019-02-18T00:24:32.816Z,37.47
2019-02-18T00:27:01.061Z,38.33
2019-02-18T00:29:29.403Z,33.23
2019-02-18T00:31:57.695Z,33.10
2019-02-18T00:34:25.970Z,36.47
2019-02-18T00:36:54.248Z,40.92
2019-02-18T00:39:22.518Z,32.83
2019-02-18T00:41:50.792Z,33.90
2019-02-18T00:44:19.066Z,37.95
2019-02-18T00:46:47.331Z,31.97
2019-02-18T00:49:15.591Z,35.00
2019-02-18T00:51:43.855Z,34.87
2019-02-18T00:54:12.121Z,31.30
2019-02-18T00:56:40.380Z,29.83
2019-02-18T00:59:08.660Z,35.93
2019-02-18T01:01:36.935Z,32.47
2019-02-18T01:04:05.195Z,36.07
2019-02-18T01:06:33.473Z,37.88
2019-02-18T01:09:01.734Z,32.53
2019-02-18T01:11:29.999Z,34.65
2019-02-18T01:13:58.283Z,39.73
2019-02-18T01:16:26.555Z,36.00
2019-02-18T01:18:54.823Z,33.57
2019-02-18T01:21:23.095Z,32.00
2019-02-18T01:23:51.361Z,38.57
2019-02-18T01:26:19.634Z,34.83
2019-02-18T01:28:47.899Z,40.50
2019-02-18T01:31:16.181Z,32.63
2019-02-18T01:33:44.480Z,32.50
2019-02-18T01:36:12.754Z,34.87
2019-02-18T01:38:41.058Z,36.97
2019-02-18T01:41:09.343Z,33.20
2019-02-18T01:43:37.610Z,33.70
2019-02-18T01:46:05.886Z,35.87
2019-02-18T01:48:34.161Z,32.43
2019-02-18T01:51:02.442Z,36.77
2019-02-18T01:53:30.719Z,37.33
2019-02-18T01:55:58.993Z,33.63
2019-02-18T01:58:27.269Z,35.13
2019-02-18T02:00:55.555Z,38.30
2019-02-18T02:03:25.292Z,32.47
2019-02-18T02:05:53.590Z,34.13
2019-02-18T02:08:21.865Z,33.18
2019-02-18T02:10:50.146Z,28.80
2019-02-18T02:13:34.880Z,38.40
2019-02-18T02:16:04.467Z,34.63
2019-02-18T02:18:32.744Z,32.83
2019-02-18T02:21:01.010Z,34.03
2019-02-18T02:23:29.284Z,34.67
2019-02-18T02:25:57.552Z,33.58
2019-02-18T02:28:25.847Z,32.15
2019-02-18T02:30:54.116Z,32.40
2019-02-18T02:33:22.384Z,35.57
2019-02-18T02:35:50.677Z,31.05
2019-02-18T02:38:18.924Z,31.20
2019-02-18T02:40:47.262Z,34.53
2019-02-18T02:43:15.484Z,30.92
2019-02-18T02:45:43.757Z,31.27
2019-02-18T02:48:12.014Z,34.27
2019-02-18T02:50:40.268Z,29.02
2019-02-18T02:53:08.558Z,30.60
2019-02-18T02:55:36.828Z,35.10
2019-02-18T02:58:05.137Z,29.60
2019-02-18T03:00:33.396Z,32.00
2019-02-18T03:03:01.684Z,30.88
2019-02-18T03:05:29.965Z,27.57
2019-02-18T03:07:58.230Z,30.53
2019-02-18T03:10:26.503Z,31.03
2019-02-18T03:12:54.765Z,31.57
2019-02-18T03:15:23.123Z,31.53
2019-02-18T03:17:51.416Z,25.52
2019-02-18T03:20:19.702Z,35.47
2019-02-18T03:22:47.955Z,27.20
2019-02-18T03:25:17.862Z,29.33
2019-02-18T03:27:46.196Z,30.13
2019-02-18T03:30:29.303Z,27.23
2019-02-18T03:32:57.734Z,29.20
2019-02-18T03:35:26.007Z,32.87
2019-02-18T03:37:54.260Z,27.58
2019-02-18T03:40:22.586Z,29.40
2019-02-18T03:42:50.813Z,28.20
2019-02-18T03:45:19.097Z,29.63
2019-02-18T03:47:47.383Z,28.50
2019-02-18T03:50:15.648Z,27.80
2019-02-18T03:52:43.943Z,27.73
2019-02-18T03:55:12.218Z,32.88
2019-02-18T03:57:40.516Z,27.62
2019-02-18T04:00:12.517Z,26.77
2019-02-18T04:02:40.873Z,25.47
2019-02-18T04:05:09.889Z,29.27
2019-02-18T04:07:38.180Z,26.10
2019-02-18T04:10:09.191Z,25.17
2019-02-18T04:12:37.457Z,26.40
2019-02-18T04:15:11.738Z,26.97
2019-02-18T04:17:40.028Z,28.32
2019-02-18T04:20:08.356Z,28.02
2019-02-18T04:22:36.623Z,26.25
2019-02-18T04:25:06.318Z,27.10
2019-02-18T04:27:34.576Z,30.07
2019-02-18T04:30:02.917Z,25.20
2019-02-18T04:32:31.192Z,26.95
2019-02-18T04:34:59.446Z,26.93
2019-02-18T04:37:27.707Z,23.50
2019-02-18T04:39:55.973Z,27.23
2019-02-18T04:42:24.242Z,27.20
2019-02-18T04:44:52.512Z,23.32
2019-02-18T04:47:20.793Z,31.20
2019-02-18T04:49:49.071Z,27.07
2019-02-18T04:52:17.345Z,22.67
2019-02-18T04:54:45.977Z,24.33
2019-02-18T04:57:14.239Z,24.35
2019-02-18T04:59:42.524Z,26.93
2019-02-18T05:02:10.777Z,24.77
2019-02-18T05:04:39.038Z,29.30
2019-02-18T05:07:07.303Z,25.67
2019-02-18T05:09:35.560Z,24.00
2019-02-18T05:12:03.854Z,27.50
2019-02-18T05:14:32.114Z,27.03
2019-02-18T05:17:00.392Z,29.35
2019-02-18T05:19:28.659Z,25.12
2019-02-18T05:21:56.919Z,26.07
2019-02-18T05:24:25.185Z,30.17
2019-02-18T05:26:53.443Z,25.60
2019-02-18T05:29:21.727Z,29.67
2019-02-18T05:31:49.978Z,25.43
2019-02-18T05:34:18.258Z,28.60
2019-02-18T05:36:46.506Z,30.60
2019-02-18T05:39:17.823Z,29.20
2019-02-18T05:41:44.784Z,25.15
2019-02-18T05:44:13.089Z,25.23
2019-02-18T05:46:41.344Z,26.07
2019-02-18T05:49:09.606Z,30.73
2019-02-18T05:51:37.904Z,24.50
2019-02-18T05:54:06.131Z,22.97
2019-02-18T05:56:34.396Z,22.87
2019-02-18T05:59:02.680Z,28.47
2019-02-18T06:01:30.932Z,22.63
2019-02-18T06:04:00.341Z,25.45
2019-02-18T06:06:28.549Z,23.60
2019-02-18T06:08:56.819Z,23.32
2019-02-18T06:11:25.088Z,22.07
2019-02-18T06:13:53.356Z,25.23
2019-02-18T06:16:21.609Z,26.73
2019-02-18T06:18:49.875Z,21.60
2019-02-18T06:21:18.139Z,26.50
2019-02-18T06:23:46.400Z,27.62
2019-02-18T06:26:14.661Z,24.03
2019-02-18T06:28:42.920Z,25.53
2019-02-18T06:31:11.170Z,23.67
2019-02-18T06:33:39.585Z,26.20
2019-02-18T06:36:07.836Z,20.53
2019-02-18T06:38:36.107Z,23.37
2019-02-18T06:41:04.364Z,25.20
2019-02-18T06:43:32.687Z,21.50
2019-02-18T06:46:02.600Z,21.62
2019-02-18T06:48:35.142Z,22.60
2019-02-18T06:51:03.422Z,21.90
2019-02-18T06:53:31.679Z,24.60
2019-02-18T06:55:59.946Z,25.90
2019-02-18T06:58:32.516Z,22.10
2019-02-18T07:01:11.215Z,22.27
2019-02-18T07:03:47.601Z,23.10
2019-02-18T07:06:23.078Z,25.03
2019-02-18T07:09:01.996Z,22.85
2019-02-18T07:11:37.882Z,22.70
2019-02-18T07:14:06.171Z,22.53
2019-02-18T07:16:35.247Z,24.00
2019-02-18T07:19:03.508Z,20.12
2019-02-18T07:21:31.772Z,23.20
2019-02-18T07:24:00.052Z,23.93
2019-02-18T07:26:28.337Z,26.17
2019-02-18T07:28:56.620Z,22.03
2019-02-18T07:31:24.896Z,28.77
2019-02-18T07:33:53.155Z,23.77
2019-02-18T07:36:21.423Z,21.03
2019-02-18T07:38:49.708Z,24.27
2019-02-18T07:41:18.047Z,22.58
2019-02-18T07:43:46.307Z,22.75
2019-02-18T07:46:14.573Z,23.17
2019-02-18T07:48:42.840Z,23.53
2019-02-18T07:51:11.112Z,20.00
2019-02-18T07:53:40.250Z,21.80
2019-02-18T07:56:08.511Z,21.43
2019-02-18T07:58:36.783Z,22.00
2019-02-18T08:01:05.049Z,22.63
2019-02-18T08:03:33.340Z,21.07
2019-02-18T08:06:01.599Z,18.70
2019-02-18T08:08:29.865Z,21.40
2019-02-18T08:10:58.119Z,21.47
2019-02-18T08:13:26.890Z,21.23
2019-02-18T08:15:55.221Z,19.50
2019-02-18T08:18:23.481Z,19.03
2019-02-18T08:20:51.735Z,26.73
2019-02-18T08:23:20.008Z,18.43
2019-02-18T08:25:48.272Z,18.50
2019-02-18T08:28:16.539Z,22.13
2019-02-18T08:30:44.809Z,21.10
2019-02-18T08:33:13.068Z,20.90
2019-02-18T08:35:41.338Z,19.00
2019-02-18T08:38:09.636Z,18.93
2019-02-18T08:40:37.886Z,19.40
2019-02-18T08:43:06.144Z,18.27
2019-02-18T08:45:34.399Z,19.57
2019-02-18T08:48:02.672Z,20.57
2019-02-18T08:50:30.935Z,19.12
2019-02-18T08:52:59.202Z,20.37
2019-02-18T08:55:27.474Z,19.03
2019-02-18T08:57:55.747Z,21.03
2019-02-18T09:00:24.010Z,16.87
2019-02-18T09:02:52.267Z,22.83
2019-02-18T09:05:20.622Z,18.20
2019-02-18T09:07:48.978Z,18.37
2019-02-18T09:10:17.252Z,17.17
2019-02-18T09:12:45.527Z,17.62
2019-02-18T09:15:14.417Z,18.75
2019-02-18T09:17:42.800Z,18.32
2019-02-18T09:20:11.063Z,21.30
2019-02-18T09:22:49.519Z,19.50
2019-02-18T09:25:22.209Z,21.97
2019-02-18T09:27:51.039Z,21.17
2019-02-18T09:30:21.019Z,18.50
2019-02-18T09:32:49.288Z,19.57
2019-02-18T09:35:17.541Z,18.23
2019-02-18T09:37:45.816Z,22.80
2019-02-18T09:40:14.081Z,20.17
2019-02-18T09:42:42.330Z,17.47
2019-02-18T09:45:14.785Z,23.15
2019-02-18T09:47:42.821Z,19.65
2019-02-18T09:50:11.340Z,20.60
2019-02-18T09:52:39.595Z,20.00
2019-02-18T09:55:09.403Z,21.97
2019-02-18T09:57:37.655Z,23.60
2019-02-18T10:00:09.011Z,19.97
2019-02-18T10:02:37.293Z,21.70
2019-02-18T10:05:06.494Z,23.57
2019-02-18T10:07:34.761Z,25.17
2019-02-18T10:10:04.711Z,20.80
2019-02-18T10:12:33.053Z,20.00
2019-02-18T10:15:01.312Z,21.05
2019-02-18T10:17:29.576Z,25.80
2019-02-18T10:19:57.837Z,20.33
2019-02-18T10:22:26.106Z,22.40
2019-02-18T10:24:54.360Z,20.93
2019-02-18T10:27:22.636Z,20.33
2019-02-18T10:29:50.908Z,24.33
2019-02-18T10:32:19.180Z,24.98
2019-02-18T10:34:47.478Z,18.47
2019-02-18T10:37:15.749Z,18.70
2019-02-18T10:39:44.876Z,19.67
2019-02-18T10:42:13.143Z,20.27
2019-02-18T10:44:41.419Z,20.62
2019-02-18T10:47:09.715Z,21.80
2019-02-18T10:49:37.956Z,21.07
2019-02-18T10:52:06.234Z,20.05
2019-02-18T10:54:34.492Z,19.77
2019-02-18T10:57:02.766Z,21.35
2019-02-18T10:59:31.053Z,21.20
2019-02-18T11:01:59.320Z,21.10
2019-02-18T11:04:27.772Z,21.40
2019-02-18T11:06:56.041Z,20.73
2019-02-18T11:09:24.301Z,22.03
2019-02-18T11:11:52.598Z,27.83
2019-02-18T11:14:20.944Z,18.55
2019-02-18T11:16:49.202Z,18.37
2019-02-18T11:19:17.758Z,18.07
2019-02-18T11:21:46.030Z,21.45
2019-02-18T11:24:14.294Z,21.12
2019-02-18T11:26:42.557Z,21.30
2019-02-18T11:29:11.118Z,20.20
2019-02-18T11:31:39.376Z,24.80
2019-02-18T11:34:07.711Z,16.77
2019-02-18T11:36:35.951Z,17.90
2019-02-18T11:39:07.400Z,17.63
2019-02-18T11:41:35.664Z,18.20
2019-02-18T11:44:04.114Z,19.30
2019-02-18T11:46:32.400Z,21.17
2019-02-18T11:49:00.664Z,21.63
2019-02-18T11:51:28.933Z,18.30
2019-02-18T11:53:57.207Z,18.83
2019-02-18T11:56:25.482Z,19.20
2019-02-18T11:58:53.939Z,20.32
2019-02-18T12:01:22.193Z,21.13
2019-02-18T12:03:50.466Z,21.30
2019-02-18T12:06:18.721Z,19.67
2019-02-18T12:08:47.087Z,19.37
2019-02-18T12:11:15.346Z,19.33
2019-02-18T12:13:43.609Z,19.17
2019-02-18T12:16:11.877Z,20.17
2019-02-18T12:18:40.146Z,19.27
2019-02-18T12:21:08.508Z,18.13
2019-02-18T12:23:36.741Z,21.73
2019-02-18T12:26:05.015Z,19.47
2019-02-18T12:28:33.284Z,21.13
2019-02-18T12:31:01.562Z,21.70
2019-02-18T12:33:29.999Z,22.50
2019-02-18T12:35:58.273Z,23.02
2019-02-18T12:38:26.539Z,22.27
2019-02-18T12:40:54.814Z,20.75
2019-02-18T12:43:23.071Z,20.23
2019-02-18T12:45:51.327Z,21.23
2019-02-18T12:48:19.869Z,18.93
2019-02-18T12:50:48.140Z,19.57
2019-02-18T12:53:16.406Z,20.23
2019-02-18T12:55:44.697Z,19.83
2019-02-18T12:58:13.023Z,18.80
2019-02-18T13:00:41.297Z,22.20
2019-02-18T13:03:09.558Z,20.40
2019-02-18T13:05:37.829Z,20.57
2019-02-18T13:08:06.269Z,18.17
2019-02-18T13:10:34.919Z,18.57
2019-02-18T13:13:03.373Z,19.37
2019-02-18T13:15:31.637Z,20.03
2019-02-18T13:20:28.207Z,20.50
2019-02-18T13:22:56.475Z,22.40
2019-02-18T13:25:24.756Z,27.33
2019-02-18T13:27:53.022Z,19.00
2019-02-18T13:30:21.347Z,18.43
2019-02-18T13:32:49.570Z,18.57
2019-02-18T13:35:17.846Z,19.50
2019-02-18T13:37:46.113Z,21.00
2019-02-18T13:40:16.311Z,19.97
2019-02-18T13:42:44.807Z,19.80
2019-02-18T13:45:13.137Z,22.40
2019-02-18T13:47:41.404Z,19.07
2019-02-18T13:50:13.589Z,23.00
2019-02-18T13:52:41.860Z,20.45
2019-02-18T13:55:13.326Z,18.83
2019-02-18T13:57:41.868Z,19.37
2019-02-18T14:00:22.568Z,20.77
2019-02-18T14:02:51.100Z,18.27
2019-02-18T14:05:22.343Z,21.40
2019-02-18T14:07:50.620Z,20.60
2019-02-18T14:10:19.527Z,17.50
2019-02-18T14:12:47.863Z,20.32
2019-02-18T14:15:16.779Z,23.67
2019-02-18T14:17:45.054Z,20.02
2019-02-18T14:20:14.561Z,18.97
2019-02-18T14:22:43.005Z,18.57
2019-02-18T14:25:11.716Z,19.77
2019-02-18T14:27:39.994Z,23.20
2019-02-18T14:30:11.088Z,20.53
2019-02-18T14:32:39.370Z,18.30
2019-02-18T14:35:08.206Z,21.50
2019-02-18T14:37:36.482Z,19.27
2019-02-18T14:40:04.879Z,16.83
2019-02-18T14:42:33.147Z,18.50
2019-02-18T14:45:01.415Z,19.60
2019-02-18T14:47:29.681Z,16.40
2019-02-18T14:49:57.961Z,17.45
2019-02-18T14:52:26.240Z,22.42
2019-02-18T14:54:54.510Z,18.80
2019-02-18T14:57:23.074Z,17.53
2019-02-18T14:59:51.358Z,17.23
2019-02-18T15:02:19.794Z,19.77
2019-02-18T15:04:48.076Z,17.80
2019-02-18T15:07:16.341Z,15.97
2019-02-18T15:09:44.614Z,22.30
2019-02-18T15:12:12.916Z,18.43
2019-02-18T15:14:42.731Z,16.50
2019-02-18T15:17:11.028Z,20.23
2019-02-18T15:19:39.311Z,18.00
2019-02-18T15:22:07.588Z,18.90
2019-02-18T15:24:35.871Z,16.97
2019-02-18T15:27:04.135Z,17.10
2019-02-18T15:29:32.850Z,15.83
2019-02-18T15:32:01.104Z,18.02
2019-02-18T15:34:29.370Z,15.03
2019-02-18T15:36:57.655Z,16.70
2019-02-18T15:39:26.061Z,17.87
2019-02-18T15:41:54.342Z,19.30
2019-02-18T15:44:22.682Z,21.23
2019-02-18T15:47:11.736Z,18.20
2019-02-18T15:49:40.018Z,17.00
2019-02-18T15:52:09.376Z,18.92
2019-02-18T15:54:37.650Z,17.37
2019-02-18T15:57:06.194Z,17.80
2019-02-18T15:59:34.459Z,23.73
2019-02-18T16:02:02.724Z,16.07
2019-02-18T16:04:30.983Z,16.07
2019-02-18T16:06:59.251Z,16.60
2019-02-18T16:09:27.534Z,16.17
2019-02-18T16:11:56.096Z,17.13
2019-02-18T16:14:24.357Z,16.80
2019-02-18T16:16:52.620Z,16.55
2019-02-18T16:19:20.900Z,17.92
2019-02-18T16:21:49.161Z,22.00
2019-02-18T16:24:20.010Z,18.17
2019-02-18T16:26:47.429Z,17.97
2019-02-18T16:29:15.976Z,16.47
2019-02-18T16:31:44.245Z,17.20
2019-02-18T16:34:12.692Z,15.43
2019-02-18T16:36:40.971Z,16.27
2019-02-18T16:39:09.608Z,15.93
2019-02-18T16:41:37.882Z,17.10
2019-02-18T16:44:06.154Z,18.40
2019-02-18T16:46:34.419Z,16.90
2019-02-18T16:49:03.059Z,15.47
2019-02-18T16:51:31.338Z,19.73
2019-02-18T16:53:59.605Z,19.45
2019-02-18T16:56:27.875Z,17.03
2019-02-18T16:58:56.148Z,17.07
2019-02-18T17:01:24.416Z,18.47
2019-02-18T17:03:52.694Z,19.43
2019-02-18T17:06:20.980Z,19.23
2019-02-18T17:08:49.252Z,19.33
2019-02-18T17:11:17.530Z,19.02
2019-02-18T17:13:45.810Z,19.62
2019-02-18T17:16:14.363Z,22.20
2019-02-18T17:18:42.640Z,17.93
2019-02-18T17:21:10.921Z,23.40
2019-02-18T17:23:39.194Z,20.48
2019-02-18T17:26:07.570Z,17.55
2019-02-18T17:28:35.843Z,17.45
2019-02-18T17:31:04.104Z,18.85
2019-02-18T17:33:32.566Z,20.27
2019-02-18T17:36:00.821Z,16.65
2019-02-18T17:38:29.089Z,18.45
2019-02-18T17:40:57.344Z,17.37
2019-02-18T17:43:25.599Z,19.10
2019-02-18T17:45:53.872Z,19.07
2019-02-18T17:48:22.138Z,19.53
2019-02-18T17:50:50.416Z,20.35
2019-02-18T17:53:18.674Z,17.67
2019-02-18T17:55:46.927Z,18.10
2019-02-18T17:58:15.195Z,25.07
2019-02-18T18:00:45.161Z,18.33
2019-02-18T18:03:13.525Z,22.13
2019-02-18T18:05:42.053Z,16.87
2019-02-18T18:08:10.323Z,21.33
2019-02-18T18:10:38.581Z,17.52
2019-02-18T18:13:06.848Z,17.57
2019-02-18T18:15:35.109Z,18.20
2019-02-18T18:18:03.827Z,16.30
2019-02-18T18:20:32.099Z,19.32
2019-02-18T18:23:00.369Z,21.10
2019-02-18T18:25:28.644Z,19.70
2019-02-18T18:27:57.002Z,25.40
2019-02-18T18:30:25.674Z,18.17
2019-02-18T18:32:53.913Z,22.40
2019-02-18T18:35:22.173Z,23.67
2019-02-18T18:37:50.702Z,17.27
2019-02-18T18:40:19.621Z,23.80
2019-02-18T18:42:47.890Z,20.47
2019-02-18T18:45:17.198Z,23.23
2019-02-18T18:47:45.460Z,23.00
2019-02-18T18:50:21.013Z,24.53
2019-02-18T18:52:49.364Z,19.90
2019-02-18T18:55:17.632Z,22.67
2019-02-18T18:57:45.914Z,21.30
2019-02-18T19:00:17.394Z,26.77
2019-02-18T19:02:45.650Z,22.10
2019-02-18T19:05:13.922Z,20.43
2019-02-18T19:07:42.215Z,21.60
2019-02-18T19:10:10.741Z,25.72
2019-02-18T19:12:39.014Z,19.82
2019-02-18T19:15:13.746Z,21.03
2019-02-18T19:17:42.015Z,25.70
2019-02-18T19:20:11.676Z,23.77
2019-02-18T19:22:40.066Z,20.97
2019-02-18T19:25:09.680Z,24.03
2019-02-18T19:27:37.959Z,22.87
2019-02-18T19:30:21.223Z,22.93
2019-02-18T19:32:49.797Z,22.90
2019-02-18T19:35:18.058Z,19.52
2019-02-18T19:37:46.339Z,23.20
2019-02-18T19:40:14.789Z,26.57
2019-02-18T19:42:43.079Z,19.27
2019-02-18T19:45:20.009Z,23.33
2019-02-18T19:47:48.275Z,19.90
2019-02-18T19:50:18.184Z,20.13
2019-02-18T19:52:46.627Z,21.53
2019-02-18T19:55:14.911Z,22.00
2019-02-18T19:57:43.182Z,21.12
2019-02-18T20:00:14.615Z,22.00
2019-02-18T20:02:42.886Z,17.17
2019-02-18T20:05:11.142Z,22.77
2019-02-18T20:07:39.392Z,21.30
2019-02-18T20:10:10.153Z,20.65
2019-02-18T20:12:38.596Z,22.27
2019-02-18T20:15:10.108Z,27.73
2019-02-18T20:17:38.441Z,19.60
2019-02-18T20:20:10.457Z,24.10
2019-02-18T20:22:38.729Z,21.53
2019-02-18T20:25:08.350Z,20.50
2019-02-18T20:27:36.624Z,21.87
2019-02-18T20:30:11.048Z,18.25
2019-02-18T20:32:39.385Z,19.87
2019-02-18T20:35:08.773Z,17.07
2019-02-18T20:37:37.067Z,19.30
2019-02-18T20:40:06.895Z,18.37
2019-02-18T20:42:35.186Z,20.32
2019-02-18T20:45:03.561Z,18.27
2019-02-18T20:47:31.818Z,17.67
2019-02-18T20:50:00.089Z,18.77
2019-02-18T20:52:28.365Z,17.03
2019-02-18T20:54:56.646Z,17.23
2019-02-18T20:57:24.932Z,19.10
2019-02-18T20:59:53.374Z,19.97
2019-02-18T21:02:21.665Z,22.50
2019-02-18T21:04:49.935Z,17.50
2019-02-18T21:07:18.233Z,16.60
2019-02-18T21:09:46.474Z,18.77
2019-02-18T21:12:19.979Z,18.30
2019-02-18T21:14:44.706Z,17.80
2019-02-18T21:17:13.008Z,17.33
2019-02-18T21:19:41.273Z,19.62
2019-02-18T21:22:09.584Z,20.40
2019-02-18T21:24:37.805Z,17.87
2019-02-18T21:27:06.043Z,19.80
2019-02-18T21:29:34.338Z,17.53
2019-02-18T21:32:02.685Z,19.67
2019-02-18T21:34:30.971Z,19.90
2019-02-18T21:36:59.284Z,22.13
2019-02-18T21:39:27.542Z,19.13
2019-02-18T21:41:55.826Z,18.20
2019-02-18T21:44:26.042Z,17.83
2019-02-18T21:46:54.106Z,20.73
2019-02-18T21:49:22.399Z,20.10
2019-02-18T21:51:50.664Z,19.25
2019-02-18T21:54:18.941Z,18.47
2019-02-18T21:56:49.858Z,18.20
2019-02-18T21:59:18.125Z,20.05
2019-02-18T22:01:46.662Z,18.97
2019-02-18T22:04:15.729Z,16.93
2019-02-18T22:06:44.007Z,18.20
2019-02-18T22:09:12.297Z,18.15
2019-02-18T22:11:40.568Z,19.20
2019-02-18T22:14:08.857Z,20.83
2019-02-18T22:16:37.157Z,17.23
2019-02-18T22:19:05.808Z,17.57
2019-02-18T22:21:34.097Z,17.73
2019-02-18T22:24:02.356Z,20.83
2019-02-18T22:26:30.637Z,20.20
2019-02-18T22:28:58.994Z,17.60
2019-02-18T22:31:27.267Z,17.90
2019-02-18T22:33:55.564Z,19.30
2019-02-18T22:36:24.127Z,17.27
2019-02-18T22:38:52.410Z,16.73
2019-02-18T22:41:20.688Z,16.97
2019-02-18T22:43:48.967Z,18.02
2019-02-18T22:46:17.237Z,19.33
2019-02-18T22:48:45.509Z,17.47
2019-02-18T22:51:13.803Z,18.43
2019-02-18T22:53:42.890Z,17.85
2019-02-18T22:56:11.144Z,19.50
2019-02-18T22:58:39.421Z,19.47
2019-02-18T23:01:08.637Z,18.20
2019-02-18T23:03:36.901Z,17.92
2019-02-18T23:06:05.173Z,19.12
2019-02-18T23:08:33.442Z,17.77
2019-02-18T23:11:01.912Z,18.97
2019-02-18T23:13:30.198Z,18.43
2019-02-18T23:15:58.477Z,21.05
2019-02-18T23:18:26.745Z,18.07
2019-02-18T23:20:55.024Z,22.37
2019-02-18T23:23:23.311Z,18.87
2019-02-18T23:25:51.586Z,16.93
2019-02-18T23:28:20.055Z,17.73
2019-02-18T23:30:48.336Z,17.98
2019-02-18T23:33:16.624Z,21.37
2019-02-18T23:35:44.931Z,20.60
2019-02-18T23:38:13.214Z,17.80
2019-02-18T23:40:41.484Z,19.07
2019-02-18T23:43:09.759Z,19.00
2019-02-18T23:45:38.023Z,22.40
2019-02-18T23:48:06.300Z,21.60
2019-02-18T23:50:34.580Z,19.03
2019-02-18T23:53:02.851Z,18.90
2019-02-18T23:55:31.876Z,20.87
2019-02-18T23:58:00.143Z,25.95
